createdAt,value
2019-05-30T00:00:07.369Z,1006.81
2019-05-30T00:00:53.873Z,1006.83
2019-05-30T00:01:52.048Z,1006.84
2019-05-30T00:02:52.037Z,1006.80
2019-05-30T00:03:52.025Z,1006.79
2019-05-30T00:04:52.014Z,1006.78
2019-05-30T00:05:52.067Z,1006.84
2019-05-30T00:06:52.001Z,1006.73
2019-05-30T00:07:51.983Z,1006.81
2019-05-30T00:08:51.971Z,1006.79
2019-05-30T00:09:51.960Z,1006.75
2019-05-30T00:10:51.948Z,1006.73
2019-05-30T00:11:52.143Z,1006.82
2019-05-30T00:12:51.926Z,1006.80
2019-05-30T00:13:51.917Z,1006.76
2019-05-30T00:14:51.906Z,1006.86
2019-05-30T00:15:51.894Z,1006.83
2019-05-30T00:16:51.882Z,1006.77
2019-05-30T00:17:51.931Z,1006.83
2019-05-30T00:18:51.862Z,1006.74
2019-05-30T00:19:51.851Z,1006.77
2019-05-30T00:20:51.839Z,1006.73
2019-05-30T00:21:51.828Z,1006.81
2019-05-30T00:22:51.821Z,1006.78
2019-05-30T00:23:51.872Z,1006.74
2019-05-30T00:24:51.794Z,1006.76
2019-05-30T00:25:51.783Z,1006.87
2019-05-30T00:26:51.786Z,1006.79
2019-05-30T00:27:51.761Z,1006.82
2019-05-30T00:28:51.751Z,1006.82
2019-05-30T00:29:51.943Z,1006.83
2019-05-30T00:30:51.731Z,1006.82
2019-05-30T00:31:51.718Z,1006.78
2019-05-30T00:32:51.707Z,1006.77
2019-05-30T00:33:51.695Z,1006.74
2019-05-30T00:34:51.684Z,1006.81
2019-05-30T00:35:51.733Z,1006.80
2019-05-30T00:36:51.659Z,1006.76
2019-05-30T00:37:51.649Z,1006.73
2019-05-30T00:38:51.638Z,1006.78
2019-05-30T00:39:51.627Z,1006.80
2019-05-30T00:40:51.615Z,1006.82
2019-05-30T00:41:51.667Z,1006.80
2019-05-30T00:42:51.594Z,1006.82
2019-05-30T00:43:51.581Z,1006.83
2019-05-30T00:44:51.589Z,1006.83
2019-05-30T00:45:51.562Z,1006.91
2019-05-30T00:46:51.553Z,1006.81
2019-05-30T00:47:51.594Z,1006.85
2019-05-30T00:48:51.537Z,1006.76
2019-05-30T00:49:51.539Z,1006.81
2019-05-30T00:50:51.503Z,1006.76
2019-05-30T00:51:51.497Z,1006.79
2019-05-30T00:52:51.482Z,1006.78
2019-05-30T00:53:51.534Z,1006.81
2019-05-30T00:54:51.459Z,1006.84
2019-05-30T00:55:51.447Z,1006.81
2019-05-30T00:56:51.437Z,1006.80
2019-05-30T00:57:51.429Z,1006.80
2019-05-30T00:58:51.413Z,1006.81
2019-05-30T00:59:51.476Z,1006.78
2019-05-30T01:00:51.410Z,1006.85
2019-05-30T01:01:51.378Z,1006.85
2019-05-30T01:02:51.424Z,1006.78
2019-05-30T01:03:51.356Z,1006.80
2019-05-30T01:04:51.347Z,1006.75
2019-05-30T01:05:51.398Z,1006.81
2019-05-30T01:06:51.324Z,1006.78
2019-05-30T01:07:51.311Z,1006.81
2019-05-30T01:08:51.306Z,1006.76
2019-05-30T01:09:51.290Z,1006.79
2019-05-30T01:10:51.276Z,1006.85
2019-05-30T01:11:51.320Z,1006.82
2019-05-30T01:12:51.253Z,1006.86
2019-05-30T01:13:51.242Z,1006.77
2019-05-30T01:14:51.231Z,1006.79
2019-05-30T01:15:51.221Z,1006.80
2019-05-30T01:16:51.322Z,1006.73
2019-05-30T01:17:51.263Z,1006.76
2019-05-30T01:18:51.199Z,1006.78
2019-05-30T01:19:51.182Z,1006.83
2019-05-30T01:20:51.166Z,1006.83
2019-05-30T01:21:51.153Z,1006.83
2019-05-30T01:22:51.141Z,1006.84
2019-05-30T01:23:51.190Z,1006.81
2019-05-30T01:24:51.139Z,1006.78
2019-05-30T01:25:51.106Z,1006.82
2019-05-30T01:26:51.094Z,1006.83
2019-05-30T01:27:51.084Z,1006.79
2019-05-30T01:28:51.072Z,1006.81
2019-05-30T01:29:51.128Z,1006.82
2019-05-30T01:31:00.213Z,1006.78
2019-05-30T01:31:52.041Z,1006.88
2019-05-30T01:32:51.027Z,1006.88
2019-05-30T01:33:51.027Z,1006.82
2019-05-30T01:34:51.003Z,1006.78
2019-05-30T01:35:51.047Z,1006.84
2019-05-30T01:36:50.984Z,1006.85
2019-05-30T01:37:50.971Z,1006.83
2019-05-30T01:38:50.965Z,1006.78
2019-05-30T01:39:50.950Z,1006.77
2019-05-30T01:40:50.935Z,1006.79
2019-05-30T01:41:50.985Z,1006.84
2019-05-30T01:42:50.941Z,1006.84
2019-05-30T01:43:50.902Z,1006.82
2019-05-30T01:44:50.890Z,1006.79
2019-05-30T01:45:50.881Z,1006.76
2019-05-30T01:46:50.868Z,1006.80
2019-05-30T01:47:50.916Z,1006.69
2019-05-30T01:48:50.863Z,1006.73
2019-05-30T01:49:50.835Z,1006.72
2019-05-30T01:50:50.822Z,1006.81
2019-05-30T01:51:50.812Z,1006.74
2019-05-30T01:52:50.962Z,1006.71
2019-05-30T01:53:50.851Z,1006.67
2019-05-30T01:54:50.777Z,1006.70
2019-05-30T01:55:50.765Z,1006.73
2019-05-30T01:56:50.754Z,1006.74
2019-05-30T01:57:50.742Z,1006.73
2019-05-30T01:58:50.731Z,1006.70
2019-05-30T01:59:50.782Z,1006.72
2019-05-30T02:00:50.709Z,1006.80
2019-05-30T02:01:50.697Z,1006.68
2019-05-30T02:02:50.686Z,1006.75
2019-05-30T02:03:50.676Z,1006.71
2019-05-30T02:04:50.664Z,1006.70
2019-05-30T02:05:50.712Z,1006.75
2019-05-30T02:06:50.640Z,1006.77
2019-05-30T02:07:50.631Z,1006.69
2019-05-30T02:08:50.617Z,1006.74
2019-05-30T02:09:50.607Z,1006.68
2019-05-30T02:10:50.595Z,1006.68
2019-05-30T02:11:50.649Z,1006.71
2019-05-30T02:12:50.601Z,1006.71
2019-05-30T02:13:50.562Z,1006.69
2019-05-30T02:14:50.551Z,1006.64
2019-05-30T02:15:50.540Z,1006.71
2019-05-30T02:16:50.533Z,1006.73
2019-05-30T02:17:50.580Z,1006.76
2019-05-30T02:18:50.504Z,1006.76
2019-05-30T02:19:50.493Z,1006.69
2019-05-30T02:20:50.483Z,1006.74
2019-05-30T02:21:50.470Z,1006.68
2019-05-30T02:22:50.459Z,1006.81
2019-05-30T02:23:50.517Z,1006.80
2019-05-30T02:24:50.438Z,1006.81
2019-05-30T02:25:50.425Z,1006.84
2019-05-30T02:26:50.413Z,1006.79
2019-05-30T02:27:50.403Z,1006.76
2019-05-30T02:28:50.393Z,1006.88
2019-05-30T02:29:50.443Z,1006.78
2019-05-30T02:30:50.370Z,1006.80
2019-05-30T02:31:50.369Z,1006.83
2019-05-30T02:32:50.349Z,1006.86
2019-05-30T02:33:50.336Z,1006.85
2019-05-30T02:34:50.326Z,1006.89
2019-05-30T02:35:50.388Z,1006.80
2019-05-30T02:36:50.312Z,1006.86
2019-05-30T02:37:50.295Z,1006.94
2019-05-30T02:38:50.290Z,1006.92
2019-05-30T02:39:50.272Z,1006.86
2019-05-30T02:40:50.257Z,1006.91
2019-05-30T02:41:50.306Z,1006.91
2019-05-30T02:42:50.238Z,1006.96
2019-05-30T02:43:50.228Z,1006.92
2019-05-30T02:44:50.216Z,1006.87
2019-05-30T02:45:50.203Z,1006.94
2019-05-30T02:46:50.193Z,1006.92
2019-05-30T02:47:50.245Z,1006.92
2019-05-30T02:48:59.096Z,1006.93
2019-05-30T02:49:51.157Z,1006.90
2019-05-30T02:50:50.147Z,1006.95
2019-05-30T02:51:50.137Z,1006.85
2019-05-30T02:52:50.125Z,1006.93
2019-05-30T02:53:50.174Z,1006.94
2019-05-30T02:54:50.103Z,1006.82
2019-05-30T02:55:50.092Z,1006.95
2019-05-30T02:56:50.093Z,1006.94
2019-05-30T02:57:50.069Z,1006.84
2019-05-30T02:58:50.060Z,1006.84
2019-05-30T02:59:50.112Z,1006.86
2019-05-30T03:00:50.038Z,1006.87
2019-05-30T03:02:01.324Z,1006.90
2019-05-30T03:02:51.013Z,1006.91
2019-05-30T03:03:50.008Z,1006.95
2019-05-30T03:04:49.991Z,1006.97
2019-05-30T03:05:50.035Z,1006.93
2019-05-30T03:06:49.970Z,1006.94
2019-05-30T03:07:49.959Z,1006.90
2019-05-30T03:08:49.947Z,1006.93
2019-05-30T03:09:49.935Z,1006.91
2019-05-30T03:10:49.930Z,1006.89
2019-05-30T03:11:49.977Z,1006.96
2019-05-30T03:12:49.905Z,1006.87
2019-05-30T03:13:49.892Z,1006.91
2019-05-30T03:14:49.882Z,1006.94
2019-05-30T03:15:49.872Z,1006.88
2019-05-30T03:16:49.861Z,1006.89
2019-05-30T03:17:49.902Z,1006.95
2019-05-30T03:18:49.835Z,1006.94
2019-05-30T03:19:49.823Z,1006.91
2019-05-30T03:20:49.813Z,1006.89
2019-05-30T03:21:49.802Z,1006.96
2019-05-30T03:22:49.795Z,1006.83
2019-05-30T03:23:49.843Z,1006.86
2019-05-30T03:24:49.772Z,1006.94
2019-05-30T03:25:49.756Z,1006.89
2019-05-30T03:26:49.743Z,1006.86
2019-05-30T03:27:49.733Z,1006.89
2019-05-30T03:28:53.354Z,1006.84
2019-05-30T03:29:49.770Z,1006.91
2019-05-30T03:30:49.704Z,1006.85
2019-05-30T03:31:49.712Z,1006.93
2019-05-30T03:33:19.386Z,1006.91
2019-05-30T03:33:50.664Z,1006.90
2019-05-30T03:34:49.656Z,1006.91
2019-05-30T03:35:49.717Z,1006.91
2019-05-30T03:36:49.644Z,1006.93
2019-05-30T03:37:49.619Z,1006.93
2019-05-30T03:38:49.674Z,1006.92
2019-05-30T03:39:49.599Z,1006.90
2019-05-30T03:40:49.586Z,1006.98
2019-05-30T03:41:49.628Z,1006.94
2019-05-30T03:42:49.564Z,1007.02
2019-05-30T03:43:49.550Z,1006.96
2019-05-30T03:44:49.539Z,1007.06
2019-05-30T03:45:49.529Z,1007.05
2019-05-30T03:46:49.514Z,1006.98
2019-05-30T03:47:49.558Z,1006.99
2019-05-30T03:48:49.498Z,1006.97
2019-05-30T03:49:49.482Z,1007.06
2019-05-30T03:50:49.471Z,1007.05
2019-05-30T03:51:49.461Z,1006.99
2019-05-30T03:52:49.450Z,1007.02
2019-05-30T03:53:49.503Z,1006.96
2019-05-30T03:54:49.428Z,1006.96
2019-05-30T03:55:49.416Z,1007.04
2019-05-30T03:56:49.409Z,1007.11
2019-05-30T03:57:49.393Z,1007.10
2019-05-30T03:58:49.382Z,1007.02
2019-05-30T03:59:49.437Z,1007.08
2019-05-30T04:00:51.260Z,1007.06
2019-05-30T04:01:49.361Z,1007.08
2019-05-30T04:02:57.062Z,1007.09
2019-05-30T04:03:50.328Z,1007.02
2019-05-30T04:04:49.318Z,1007.01
2019-05-30T04:05:49.364Z,1007.09
2019-05-30T04:06:49.292Z,1007.08
2019-05-30T04:07:49.293Z,1007.00
2019-05-30T04:08:49.285Z,1007.08
2019-05-30T04:09:49.258Z,1007.12
2019-05-30T04:10:49.247Z,1007.09
2019-05-30T04:11:49.299Z,1007.00
2019-05-30T04:12:49.230Z,1007.06
2019-05-30T04:13:49.216Z,1007.07
2019-05-30T04:14:49.203Z,1007.06
2019-05-30T04:15:49.191Z,1007.11
2019-05-30T04:16:49.188Z,1007.12
2019-05-30T04:17:49.233Z,1007.10
2019-05-30T04:18:49.161Z,1007.06
2019-05-30T04:19:49.155Z,1007.15
2019-05-30T04:20:49.135Z,1007.10
2019-05-30T04:21:49.129Z,1007.16
2019-05-30T04:22:49.114Z,1007.08
2019-05-30T04:23:49.175Z,1007.12
2019-05-30T04:24:49.092Z,1007.14
2019-05-30T04:25:49.081Z,1007.14
2019-05-30T04:26:49.071Z,1007.19
2019-05-30T04:27:49.068Z,1007.12
2019-05-30T04:28:49.049Z,1007.17
2019-05-30T04:29:49.093Z,1007.16
2019-05-30T04:30:49.024Z,1007.19
2019-05-30T04:31:49.015Z,1007.16
2019-05-30T04:32:49.003Z,1007.13
2019-05-30T04:33:48.995Z,1007.18
2019-05-30T04:34:48.978Z,1007.16
2019-05-30T04:35:49.034Z,1007.17
2019-05-30T04:36:53.151Z,1007.17
2019-05-30T04:37:48.945Z,1007.21
2019-05-30T04:38:48.966Z,1007.14
2019-05-30T04:39:48.922Z,1007.17
2019-05-30T04:40:48.910Z,1007.14
2019-05-30T04:41:48.961Z,1007.12
2019-05-30T04:42:48.894Z,1007.16
2019-05-30T04:43:48.881Z,1007.12
2019-05-30T04:44:48.865Z,1007.13
2019-05-30T04:45:48.855Z,1007.17
2019-05-30T04:46:48.853Z,1007.12
2019-05-30T04:47:48.927Z,1007.19
2019-05-30T04:48:48.822Z,1007.21
2019-05-30T04:49:48.810Z,1007.16
2019-05-30T04:50:48.802Z,1007.19
2019-05-30T04:51:48.787Z,1007.19
2019-05-30T04:52:48.773Z,1007.14
2019-05-30T04:53:48.820Z,1007.18
2019-05-30T04:54:48.752Z,1007.29
2019-05-30T04:55:48.742Z,1007.28
2019-05-30T04:56:48.729Z,1007.21
2019-05-30T04:57:48.725Z,1007.16
2019-05-30T04:58:48.709Z,1007.17
2019-05-30T04:59:48.783Z,1007.15
2019-05-30T05:00:48.685Z,1007.28
2019-05-30T05:01:48.681Z,1007.20
2019-05-30T05:02:48.669Z,1007.18
2019-05-30T05:03:48.652Z,1007.23
2019-05-30T05:04:48.642Z,1007.24
2019-05-30T05:05:48.706Z,1007.18
2019-05-30T05:06:48.618Z,1007.17
2019-05-30T05:07:48.608Z,1007.16
2019-05-30T05:08:48.597Z,1007.25
2019-05-30T05:09:48.584Z,1007.19
2019-05-30T05:10:48.579Z,1007.29
2019-05-30T05:11:48.627Z,1007.27
2019-05-30T05:12:50.255Z,1007.22
2019-05-30T05:13:48.539Z,1007.23
2019-05-30T05:14:48.528Z,1007.19
2019-05-30T05:15:48.524Z,1007.24
2019-05-30T05:16:48.504Z,1007.27
2019-05-30T05:17:48.550Z,1007.29
2019-05-30T05:18:48.485Z,1007.25
2019-05-30T05:19:48.470Z,1007.29
2019-05-30T05:20:48.459Z,1007.25
2019-05-30T05:21:48.449Z,1007.20
2019-05-30T05:22:48.436Z,1007.18
2019-05-30T05:23:48.493Z,1007.18
2019-05-30T05:24:48.414Z,1007.14
2019-05-30T05:26:00.259Z,1007.12
2019-05-30T05:26:49.392Z,1007.20
2019-05-30T05:27:48.424Z,1007.13
2019-05-30T05:28:48.395Z,1007.18
2019-05-30T05:29:48.422Z,1007.11
2019-05-30T05:30:48.346Z,1007.17
2019-05-30T05:31:48.336Z,1007.21
2019-05-30T05:32:48.325Z,1007.22
2019-05-30T05:33:56.860Z,1007.10
2019-05-30T05:34:52.019Z,1007.17
2019-05-30T05:35:48.290Z,1007.11
2019-05-30T05:36:48.280Z,1007.11
2019-05-30T05:37:48.268Z,1007.09
2019-05-30T05:38:48.255Z,1007.08
2019-05-30T05:39:48.247Z,1007.05
2019-05-30T05:40:48.295Z,1007.16
2019-05-30T05:41:48.222Z,1007.15
2019-05-30T05:42:48.211Z,1007.17
2019-05-30T05:43:48.200Z,1007.17
2019-05-30T05:44:48.188Z,1007.19
2019-05-30T05:45:48.179Z,1007.14
2019-05-30T05:46:48.240Z,1007.21
2019-05-30T05:47:48.160Z,1007.20
2019-05-30T05:48:48.147Z,1007.20
2019-05-30T05:49:48.135Z,1007.19
2019-05-30T05:50:48.122Z,1007.23
2019-05-30T05:51:48.110Z,1007.18
2019-05-30T05:52:48.159Z,1007.25
2019-05-30T05:53:48.087Z,1007.19
2019-05-30T05:54:48.077Z,1007.17
2019-05-30T05:55:48.066Z,1007.15
2019-05-30T05:56:48.052Z,1007.16
2019-05-30T05:57:48.042Z,1007.17
2019-05-30T05:58:48.086Z,1007.14
2019-05-30T05:59:48.022Z,1007.16
2019-05-30T06:00:48.009Z,1007.12
2019-05-30T06:01:47.999Z,1007.05
2019-05-30T06:02:47.984Z,1007.20
2019-05-30T06:03:47.975Z,1007.18
2019-05-30T06:04:48.040Z,1007.19
2019-05-30T06:05:52.880Z,1007.09
2019-05-30T06:06:48.950Z,1007.11
2019-05-30T06:07:47.929Z,1007.16
2019-05-30T06:08:47.920Z,1007.17
2019-05-30T06:09:47.938Z,1007.18
2019-05-30T06:10:47.949Z,1007.20
2019-05-30T06:11:49.122Z,1007.22
2019-05-30T06:12:48.123Z,1007.18
2019-05-30T06:13:47.862Z,1007.20
2019-05-30T06:14:47.854Z,1007.14
2019-05-30T06:15:47.838Z,1007.15
2019-05-30T06:16:47.892Z,1007.14
2019-05-30T06:17:47.815Z,1007.25
2019-05-30T06:18:47.813Z,1007.22
2019-05-30T06:19:47.795Z,1007.17
2019-05-30T06:20:47.784Z,1007.15
2019-05-30T06:21:53.889Z,1007.23
2019-05-30T06:22:48.830Z,1007.22
2019-05-30T06:23:47.749Z,1007.20
2019-05-30T06:24:47.740Z,1007.13
2019-05-30T06:25:47.728Z,1007.10
2019-05-30T06:26:47.716Z,1007.10
2019-05-30T06:27:47.703Z,1007.13
2019-05-30T06:28:47.759Z,1007.11
2019-05-30T06:29:47.681Z,1007.08
2019-05-30T06:30:47.673Z,1007.12
2019-05-30T06:31:47.660Z,1007.08
2019-05-30T06:32:47.649Z,1007.10
2019-05-30T06:33:47.640Z,1007.15
2019-05-30T06:34:47.693Z,1007.10
2019-05-30T06:35:47.615Z,1007.07
2019-05-30T06:36:47.610Z,1007.10
2019-05-30T06:37:47.592Z,1007.13
2019-05-30T06:38:47.582Z,1007.11
2019-05-30T06:39:47.577Z,1007.10
2019-05-30T06:40:47.627Z,1007.12
2019-05-30T06:41:47.550Z,1007.13
2019-05-30T06:42:47.539Z,1007.17
2019-05-30T06:43:47.547Z,1007.20
2019-05-30T06:44:47.518Z,1007.16
2019-05-30T06:45:47.512Z,1007.19
2019-05-30T06:46:47.556Z,1007.12
2019-05-30T06:47:47.482Z,1007.15
2019-05-30T06:48:47.474Z,1007.21
2019-05-30T06:49:47.481Z,1007.19
2019-05-30T06:50:47.449Z,1007.16
2019-05-30T06:51:47.440Z,1007.17
2019-05-30T06:52:47.492Z,1007.18
2019-05-30T06:53:47.415Z,1007.16
2019-05-30T06:54:47.403Z,1007.20
2019-05-30T06:55:47.401Z,1007.18
2019-05-30T06:56:47.381Z,1007.24
2019-05-30T06:57:47.418Z,1007.20
2019-05-30T06:58:49.057Z,1007.22
2019-05-30T06:59:47.349Z,1007.23
2019-05-30T07:00:47.336Z,1007.22
2019-05-30T07:01:47.332Z,1007.14
2019-05-30T07:02:47.326Z,1007.18
2019-05-30T07:03:47.504Z,1007.19
2019-05-30T07:04:51.938Z,1007.18
2019-05-30T07:05:48.780Z,1007.18
2019-05-30T07:06:47.500Z,1007.21
2019-05-30T07:07:47.396Z,1007.15
2019-05-30T07:08:47.248Z,1007.14
2019-05-30T07:09:47.240Z,1007.19
2019-05-30T07:10:47.291Z,1007.16
2019-05-30T07:11:47.213Z,1007.21
2019-05-30T07:12:47.201Z,1007.10
2019-05-30T07:13:47.197Z,1007.17
2019-05-30T07:14:47.179Z,1007.16
2019-05-30T07:15:47.168Z,1007.16
2019-05-30T07:16:47.218Z,1007.07
2019-05-30T07:17:47.146Z,1007.12
2019-05-30T07:18:47.141Z,1007.12
2019-05-30T07:19:47.182Z,1007.12
2019-05-30T07:20:47.111Z,1007.17
2019-05-30T07:21:47.100Z,1007.19
2019-05-30T07:22:47.144Z,1007.15
2019-05-30T07:23:47.079Z,1007.18
2019-05-30T07:24:47.068Z,1007.10
2019-05-30T07:25:47.058Z,1007.15
2019-05-30T07:26:47.043Z,1007.13
2019-05-30T07:27:47.032Z,1007.12
2019-05-30T07:28:47.079Z,1007.15
2019-05-30T07:29:47.010Z,1007.17
2019-05-30T07:30:47.016Z,1007.18
2019-05-30T07:31:47.005Z,1007.09
2019-05-30T07:32:46.979Z,1007.19
2019-05-30T07:33:46.966Z,1007.23
2019-05-30T07:34:47.014Z,1007.20
2019-05-30T07:35:46.941Z,1007.14
2019-05-30T07:36:46.931Z,1007.15
2019-05-30T07:37:46.946Z,1007.19
2019-05-30T07:38:46.908Z,1007.15
2019-05-30T07:39:46.899Z,1007.17
2019-05-30T07:40:46.943Z,1007.10
2019-05-30T07:42:04.957Z,1007.10
2019-05-30T07:42:47.865Z,1007.18
2019-05-30T07:43:46.852Z,1007.25
2019-05-30T07:44:46.843Z,1007.27
2019-05-30T07:45:57.383Z,1007.20
2019-05-30T07:46:47.883Z,1007.27
2019-05-30T07:47:46.809Z,1007.25
2019-05-30T07:48:46.818Z,1007.26
2019-05-30T07:49:46.788Z,1007.26
2019-05-30T07:50:46.779Z,1007.24
2019-05-30T07:51:46.774Z,1007.27
2019-05-30T07:52:46.816Z,1007.25
2019-05-30T07:53:46.740Z,1007.13
2019-05-30T07:54:46.738Z,1007.18
2019-05-30T07:55:46.717Z,1007.20
2019-05-30T07:56:46.708Z,1007.24
2019-05-30T07:57:46.697Z,1007.21
2019-05-30T07:58:46.767Z,1007.16
2019-05-30T07:59:46.673Z,1007.22
2019-05-30T08:00:46.705Z,1007.16
2019-05-30T08:01:46.653Z,1007.20
2019-05-30T08:02:46.638Z,1007.12
2019-05-30T08:03:46.632Z,1007.16
2019-05-30T08:04:47.108Z,1007.13
2019-05-30T08:05:46.605Z,1007.10
2019-05-30T08:06:46.623Z,1007.09
2019-05-30T08:07:46.585Z,1007.09
2019-05-30T08:08:46.576Z,1007.14
2019-05-30T08:09:46.560Z,1007.11
2019-05-30T08:10:46.611Z,1007.12
2019-05-30T08:11:46.543Z,1007.09
2019-05-30T08:12:46.530Z,1007.14
2019-05-30T08:13:46.520Z,1007.14
2019-05-30T08:14:46.565Z,1007.10
2019-05-30T08:15:46.492Z,1007.07
2019-05-30T08:16:46.547Z,1007.09
2019-05-30T08:17:46.477Z,1007.11
2019-05-30T08:18:46.461Z,1007.01
2019-05-30T08:19:46.450Z,1007.05
2019-05-30T08:20:46.451Z,1007.05
2019-05-30T08:21:46.426Z,1006.97
2019-05-30T08:22:46.499Z,1006.92
2019-05-30T08:23:46.406Z,1007.04
2019-05-30T08:24:46.392Z,1006.99
2019-05-30T08:25:46.382Z,1006.96
2019-05-30T08:26:46.395Z,1007.05
2019-05-30T08:27:46.363Z,1007.05
2019-05-30T08:28:46.416Z,1006.96
2019-05-30T08:29:46.339Z,1006.92
2019-05-30T08:30:46.333Z,1006.91
2019-05-30T08:31:46.316Z,1006.93
2019-05-30T08:32:46.321Z,1006.92
2019-05-30T08:33:47.446Z,1006.99
2019-05-30T08:34:46.348Z,1006.97
2019-05-30T08:35:49.939Z,1006.89
2019-05-30T08:36:46.272Z,1006.93
2019-05-30T08:37:46.279Z,1006.92
2019-05-30T08:38:48.206Z,1007.03
2019-05-30T08:39:46.237Z,1006.92
2019-05-30T08:40:46.287Z,1006.92
2019-05-30T08:41:46.204Z,1006.95
2019-05-30T08:42:46.213Z,1006.98
2019-05-30T08:43:46.183Z,1006.94
2019-05-30T08:44:46.171Z,1007.01
2019-05-30T08:45:46.163Z,1006.97
2019-05-30T08:46:46.216Z,1007.01
2019-05-30T08:47:46.139Z,1006.97
2019-05-30T08:48:46.127Z,1006.98
2019-05-30T08:49:46.120Z,1006.92
2019-05-30T08:50:46.106Z,1006.89
2019-05-30T08:51:46.116Z,1006.94
2019-05-30T08:52:46.180Z,1007.01
2019-05-30T08:53:46.069Z,1007.04
2019-05-30T08:54:46.063Z,1006.96
2019-05-30T08:55:46.045Z,1007.03
2019-05-30T08:56:46.091Z,1007.00
2019-05-30T08:57:46.025Z,1007.03
2019-05-30T08:58:46.073Z,1006.95
2019-05-30T08:59:46.001Z,1006.98
2019-05-30T09:00:45.994Z,1006.92
2019-05-30T09:01:47.125Z,1006.96
2019-05-30T09:02:46.933Z,1006.88
2019-05-30T09:03:46.320Z,1006.92
2019-05-30T09:04:46.086Z,1006.84
2019-05-30T09:05:59.242Z,1006.88
2019-05-30T09:06:46.923Z,1006.81
2019-05-30T09:07:46.317Z,1006.84
2019-05-30T09:08:46.360Z,1006.85
2019-05-30T09:09:46.396Z,1006.78
2019-05-30T09:10:46.491Z,1006.85
2019-05-30T09:11:46.373Z,1006.84
2019-05-30T09:12:49.372Z,1006.84
2019-05-30T09:13:46.737Z,1006.87
2019-05-30T09:14:46.940Z,1006.94
2019-05-30T09:15:46.981Z,1006.79
2019-05-30T09:16:46.519Z,1006.85
2019-05-30T09:17:46.748Z,1006.85
2019-05-30T09:18:45.798Z,1006.88
2019-05-30T09:19:45.782Z,1006.81
2019-05-30T09:20:45.790Z,1006.77
2019-05-30T09:21:45.758Z,1006.74
2019-05-30T09:22:45.819Z,1006.83
2019-05-30T09:23:46.256Z,1006.79
2019-05-30T09:24:46.124Z,1006.84
2019-05-30T09:25:48.241Z,1006.79
2019-05-30T09:26:48.491Z,1006.79
2019-05-30T09:27:46.680Z,1006.72
2019-05-30T09:28:46.282Z,1006.75
2019-05-30T09:29:46.220Z,1006.78
2019-05-30T09:30:46.502Z,1006.76
2019-05-30T09:31:46.715Z,1006.68
2019-05-30T09:32:46.832Z,1006.71
2019-05-30T09:33:46.659Z,1006.68
2019-05-30T09:34:46.877Z,1006.68
2019-05-30T09:35:46.932Z,1006.63
2019-05-30T09:36:46.856Z,1006.68
2019-05-30T09:37:45.974Z,1006.68
2019-05-30T09:38:45.576Z,1006.69
2019-05-30T09:39:45.616Z,1006.63
2019-05-30T09:40:45.614Z,1006.74
2019-05-30T09:41:45.775Z,1006.76
2019-05-30T09:42:46.940Z,1006.62
2019-05-30T09:43:46.377Z,1006.64
2019-05-30T09:44:48.944Z,1006.62
2019-05-30T09:45:46.568Z,1006.69
2019-05-30T09:46:46.864Z,1006.65
2019-05-30T09:47:47.173Z,1006.68
2019-05-30T09:48:46.574Z,1006.70
2019-05-30T09:49:46.538Z,1006.68
2019-05-30T09:50:46.693Z,1006.64
2019-05-30T09:51:46.911Z,1006.66
2019-05-30T09:52:45.451Z,1006.71
2019-05-30T09:53:45.967Z,1006.71
2019-05-30T09:54:45.920Z,1006.70
2019-05-30T09:55:46.189Z,1006.66
2019-05-30T09:56:46.353Z,1006.70
2019-05-30T09:57:45.894Z,1006.77
2019-05-30T09:58:46.073Z,1006.76
2019-05-30T09:59:46.626Z,1006.76
2019-05-30T10:00:46.667Z,1006.80
2019-05-30T10:01:46.034Z,1006.73
2019-05-30T10:02:46.607Z,1006.78
2019-05-30T10:03:46.491Z,1006.87
2019-05-30T10:04:46.817Z,1006.82
2019-05-30T10:05:46.941Z,1006.86
2019-05-30T10:06:46.292Z,1006.86
2019-05-30T10:07:45.921Z,1006.90
2019-05-30T10:08:46.593Z,1006.95
2019-05-30T10:09:45.688Z,1006.90
2019-05-30T10:10:45.708Z,1006.59
2019-05-30T10:11:45.605Z,1006.54
2019-05-30T10:12:46.524Z,1006.80
2019-05-30T10:13:46.342Z,1006.80
2019-05-30T10:14:46.581Z,1006.82
2019-05-30T10:15:45.751Z,1006.81
2019-05-30T10:16:47.852Z,1006.74
2019-05-30T10:17:47.631Z,1006.71
2019-05-30T10:18:46.090Z,1006.84
2019-05-30T10:19:45.991Z,1006.74
2019-05-30T10:20:46.284Z,1006.70
2019-05-30T10:21:46.091Z,1006.78
2019-05-30T10:22:48.282Z,1006.72
2019-05-30T10:23:47.192Z,1006.71
2019-05-30T10:24:46.228Z,1006.68
2019-05-30T10:25:46.588Z,1006.69
2019-05-30T10:26:46.127Z,1006.73
2019-05-30T10:27:46.425Z,1006.58
2019-05-30T10:28:46.104Z,1006.74
2019-05-30T10:29:47.290Z,1006.67
2019-05-30T10:30:48.293Z,1006.72
2019-05-30T10:31:46.476Z,1006.83
2019-05-30T10:32:46.537Z,1006.74
2019-05-30T10:33:46.289Z,1006.67
2019-05-30T10:34:46.163Z,1006.70
2019-05-30T10:35:46.103Z,1006.70
2019-05-30T10:36:47.200Z,1006.64
2019-05-30T10:37:45.781Z,1006.65
2019-05-30T10:38:45.430Z,1006.67
2019-05-30T10:39:46.978Z,1006.58
2019-05-30T10:40:45.629Z,1006.66
2019-05-30T10:41:46.247Z,1006.66
2019-05-30T10:42:46.168Z,1006.61
2019-05-30T10:43:45.974Z,1006.64
2019-05-30T10:44:46.066Z,1006.63
2019-05-30T10:45:46.188Z,1006.57
2019-05-30T10:46:47.037Z,1006.61
2019-05-30T10:47:45.894Z,1006.62
2019-05-30T10:48:47.290Z,1006.53
2019-05-30T10:49:45.299Z,1006.53
2019-05-30T10:50:46.847Z,1006.59
2019-05-30T10:51:46.179Z,1006.59
2019-05-30T10:52:45.337Z,1006.53
2019-05-30T10:53:45.486Z,1006.51
2019-05-30T10:54:45.035Z,1006.52
2019-05-30T10:55:45.298Z,1006.55
2019-05-30T10:56:45.132Z,1006.52
2019-05-30T10:57:45.214Z,1006.42
2019-05-30T10:58:46.530Z,1006.16
2019-05-30T10:59:46.138Z,1006.27
2019-05-30T11:00:45.643Z,1006.67
2019-05-30T11:01:46.612Z,1006.57
2019-05-30T11:02:46.071Z,1006.56
2019-05-30T11:03:45.837Z,1006.60
2019-05-30T11:04:45.946Z,1006.57
2019-05-30T11:05:44.656Z,1006.46
2019-05-30T11:07:01.264Z,1006.57
2019-05-30T11:07:55.088Z,1006.50
2019-05-30T11:08:46.173Z,1006.50
2019-05-30T11:09:44.611Z,1006.52
2019-05-30T11:10:44.609Z,1006.13
2019-05-30T11:11:44.592Z,1006.32
2019-05-30T11:12:44.589Z,1006.17
2019-05-30T11:13:44.571Z,1006.27
2019-05-30T11:14:44.613Z,1006.22
2019-05-30T11:15:44.554Z,1006.51
2019-05-30T11:16:44.538Z,1006.54
2019-05-30T11:17:44.528Z,1006.25
2019-05-30T11:18:44.517Z,1006.26
2019-05-30T11:19:44.507Z,1006.25
2019-05-30T11:20:44.550Z,1006.24
2019-05-30T11:21:44.483Z,1006.26
2019-05-30T11:22:44.474Z,1006.19
2019-05-30T11:23:44.462Z,1006.22
2019-05-30T11:24:44.454Z,1006.24
2019-05-30T11:25:44.440Z,1006.57
2019-05-30T11:26:44.492Z,1006.57
2019-05-30T11:27:44.426Z,1006.48
2019-05-30T11:28:44.409Z,1006.47
2019-05-30T11:29:44.396Z,1006.36
2019-05-30T11:30:44.411Z,1006.33
2019-05-30T11:31:44.375Z,1006.40
2019-05-30T11:32:44.431Z,1006.33
2019-05-30T11:33:44.355Z,1006.30
2019-05-30T11:34:44.349Z,1006.34
2019-05-30T11:35:44.334Z,1006.27
2019-05-30T11:36:44.323Z,1006.32
2019-05-30T11:37:44.311Z,1006.25
2019-05-30T11:38:44.364Z,1006.28
2019-05-30T11:39:44.294Z,1006.38
2019-05-30T11:40:44.281Z,1006.30
2019-05-30T11:41:44.270Z,1006.28
2019-05-30T11:42:44.259Z,1006.21
2019-05-30T11:43:44.251Z,1006.24
2019-05-30T11:44:44.312Z,1006.16
2019-05-30T11:45:44.228Z,1006.24
2019-05-30T11:46:44.217Z,1006.22
2019-05-30T11:47:44.207Z,1006.19
2019-05-30T11:48:44.197Z,1006.11
2019-05-30T11:49:44.189Z,1006.13
2019-05-30T11:50:44.285Z,1006.22
2019-05-30T11:51:44.166Z,1006.16
2019-05-30T11:52:44.155Z,1006.16
2019-05-30T11:53:44.151Z,1006.22
2019-05-30T11:54:44.133Z,1006.19
2019-05-30T11:55:44.123Z,1006.12
2019-05-30T11:56:44.173Z,1006.21
2019-05-30T11:57:44.100Z,1006.17
2019-05-30T11:58:44.089Z,1006.25
2019-05-30T11:59:44.078Z,1005.79
2019-05-30T12:00:44.068Z,1005.88
2019-05-30T12:01:44.068Z,1005.97
2019-05-30T12:02:44.113Z,1006.21
2019-05-30T12:03:44.037Z,1006.33
2019-05-30T12:04:44.027Z,1006.27